AirNav   Air Wisconsin Up To $57,000 Bonus
 
 973 users online  

S51 Andy Mc Beth Airport
Klamath Glen, California, USA

GOING TO KLAMATH GLEN?


FAA INFORMATION EFFECTIVE 25 FEBRUARY 2021

Location

FAA Identifier: S51
Lat/Long: 41-30-43.3000N 123-59-44.4000W
41-30.721667N 123-59.740000W
41.5120278,-123.9956667
(estimated)
Elevation: 42 ft. / 12.8 m (surveyed)
Variation: 18E (1985)
From city: 1 mile S of KLAMATH GLEN, CA
Time zone: UTC -8 (UTC -7 during Daylight Saving Time)
Zip code: 95548

Airport Operations

Airport use: Open to the public
Activation date: 08/1980
Control tower: no
ARTCC: SEATTLE CENTER
FSS: OAKLAND FLIGHT SERVICE STATION
NOTAMs facility: OAK (NOTAM-D service available)
Attendance: UNATNDD
Wind indicator: yes
Segmented circle: yes

Airport Communications

CTAF: 122.9
WX ASOS at CEC (19 nm NW): 119.925 (707-465-5458)

Nearby radio navigation aids

VOR radial/distance  VOR name  Freq  Var
CECr132/19.5CRESCENT CITY VORTAC109.0014E
ACVr352/32.2ARCATA VOR/DME115.0517E

Airport Services

Parking: tiedowns
Airframe service: NONE
Powerplant service: NONE
Bottled oxygen: NONE
Bulk oxygen: NONE

Runway Information

Runway 11/29

Dimensions: 2400 x 50 ft. / 732 x 15 m
Surface: asphalt, in good condition
Weight bearing capacity: 
Single wheel: 12.0
RUNWAY 11  RUNWAY 29
Latitude: 41-30.846000N41-30.598833N
Longitude: 123-59.946167W123-59.535667W
Elevation: 31.8 ft.41.4 ft.
Traffic pattern: rightleft
Markings: basic, in good conditionbasic, in good condition
Runway end identifier lights: nono
Obstructions: 30 ft. trees, 200 ft. from runway, 35 ft. right of centerline, 1:1 slope to clear340 ft. hill, 3700 ft. from runway, 10:1 slope to clear

Airport Ownership and Management from official FAA records

Ownership: Publicly-owned
Owner: DEL NORTE COUNTY
981 H STREET
CRESCENT CITY, CA 95531
Phone (707) 464-7288
Manager: RANDY HOOPER
1650 DALE RUPERT ROAD, SUITE 100
CRESCENT CITY, CA 95531
Phone (707) 464-7288
AIRPORT MANAGER OFFICE LOCATED AT CEC.

Airport Operational Statistics

Aircraft operations: avg 23/week *
92% transient general aviation
8% military
* for 12-month period ending 31 December 2018

Additional Remarks

HIGH MOUNTAINS AND TREES SURROUND ARPT; MOUNTAIN FLYING EXPERIENCE STRONGLY RECOMMENDED.
AP SFC CONDS NOT RPRTD.
FOR CD CTC SEATTLE ARTCC AT 253-351-3694.

Instrument Procedures

There are no published instrument procedures at S51.

Some nearby airports with instrument procedures:

KCEC - Jack Mc Namara Field Airport (19 nm NW)
KACV - California Redwood Coast-Humboldt County Airport (32 nm S)
KEKA - Murray Field Airport (43 nm S)
KFOT - Rohnerville Airport (58 nm S)
3S8 - Grants Pass Airport (66 nm NE)
 
Loc | Ops | Rwys | IFR | FBO | Links
Com | Nav | Svcs | Stats | Notes
Area around S51 (Andy Mc Beth Airport)
 
Road maps at: MapQuest Bing Google
 
Aerial photo
WARNING: Photo may not be current or correct
Aerial photo of S51 (Andy Mc Beth Airport)
Photo taken 01-Jun-2007

Do you have a better or more recent aerial photo of Andy Mc Beth Airport that you would like to share? If so, please send us your photo.

 
Sectional chart

 
Airport distance calculator
Flying to Andy Mc Beth Airport? Find the distance to fly.

From to S51

Sunrise and sunset
Times for 26-Feb-2021
 Local
(UTC-8)
 Zulu
(UTC)
Morning civil twilight06:2814:28
Sunrise06:5614:56
Sunset18:0202:02
Evening civil twilight18:3002:30

Current date and time
Zulu (UTC)  26-Feb-2021 23:18:05
Local (UTC-8)  26-Feb-2021 15:18:05
 
METAR
KCEC 
18nm NW 
262256Z AUTO 34016G24KT 5SM HZ BKN070 09/04 A3034 RMK AO2 PK WND 34028/2208 SLP275 T00940039
KACV 
32nm S 
262253Z AUTO 35013KT 8SM BKN030 OVC036 09/03 A3033 RMK AO2 SLP277 T00940033
KBOK 
36nm N 
262256Z AUTO 32014G19KT 10SM SCT033 BKN050 10/03 A3033 RMK AO2 SLP271 T01000028 PNO $
TAF
KCEC 
18nm NW 
262204Z 2622/2718 33015G23KT 4SM HZ SCT035 FM270400 34008KT P6SM OVC050 FM271600 01006KT 6SM HZ SKC
NOTAMs
Click for the latest NOTAMs
NOTAMs are issued by the DoD/FAA and will open in a separate window not controlled by AirNav.

 

 
 

Would you like to see your business listed on this page?

 If your business provides an interesting product or service to pilots, flight crews, aircraft, or users of the Andy Mc Beth Airport, you should consider listing it here.  To start the listing process, click on the button below
 
Add a business
 

Other Pages about Andy Mc Beth Airport

Update a link
 
Copyright © AirNav, LLC. All rights reserved. Privacy Policy  Contact